sensor_id;sensor_type;location;lat;lon;timestamp;temperature;humidity
15217;DHT22;7711;46.634;14.318;2024-01-30T00:02:00;-4.90;1.00
15217;DHT22;7711;46.634;14.318;2024-01-30T00:04:27;-4.80;1.00
15217;DHT22;7711;46.634;14.318;2024-01-30T00:06:54;-4.70;1.00
15217;DHT22;7711;46.634;14.318;2024-01-30T00:09:23;-4.70;1.00
15217;DHT22;7711;46.634;14.318;2024-01-30T00:11:50;-4.70;1.00
15217;DHT22;7711;46.634;14.318;2024-01-30T00:14:17;-4.80;1.00
15217;DHT22;7711;46.634;14.318;2024-01-30T00:16:44;-4.90;1.00
15217;DHT22;7711;46.634;14.318;2024-01-30T00:19:11;-4.90;1.00
15217;DHT22;7711;46.634;14.318;2024-01-30T00:21:38;-4.80;1.00
15217;DHT22;7711;46.634;14.318;2024-01-30T00:24:05;-4.80;1.00
15217;DHT22;7711;46.634;14.318;2024-01-30T00:26:33;-4.60;1.00
15217;DHT22;7711;46.634;14.318;2024-01-30T00:29:00;-4.60;1.00
15217;DHT22;7711;46.634;14.318;2024-01-30T00:31:27;-4.50;1.00
15217;DHT22;7711;46.634;14.318;2024-01-30T00:33:55;-4.50;1.00
15217;DHT22;7711;46.634;14.318;2024-01-30T00:36:21;-4.70;1.00
15217;DHT22;7711;46.634;14.318;2024-01-30T00:38:48;-4.80;1.00
15217;DHT22;7711;46.634;14.318;2024-01-30T00:41:17;-4.80;1.00
15217;DHT22;7711;46.634;14.318;2024-01-30T00:43:46;-4.80;1.00
15217;DHT22;7711;46.634;14.318;2024-01-30T00:46:13;-4.80;1.00
15217;DHT22;7711;46.634;14.318;2024-01-30T00:48:40;-4.90;1.00
15217;DHT22;7711;46.634;14.318;2024-01-30T00:51:07;-5.10;1.00
15217;DHT22;7711;46.634;14.318;2024-01-30T00:53:34;-5.20;1.00
15217;DHT22;7711;46.634;14.318;2024-01-30T00:56:01;-5.20;1.00
15217;DHT22;7711;46.634;14.318;2024-01-30T00:58:29;-5.20;1.00
15217;DHT22;7711;46.634;14.318;2024-01-30T01:00:57;-5.20;1.00
15217;DHT22;7711;46.634;14.318;2024-01-30T01:03:24;-5.30;1.00
15217;DHT22;7711;46.634;14.318;2024-01-30T01:05:51;-5.30;1.00
15217;DHT22;7711;46.634;14.318;2024-01-30T01:08:18;-5.30;1.00
15217;DHT22;7711;46.634;14.318;2024-01-30T01:10:45;-5.20;1.00
15217;DHT22;7711;46.634;14.318;2024-01-30T01:13:12;-5.10;1.00
15217;DHT22;7711;46.634;14.318;2024-01-30T01:15:39;-5.10;1.00
15217;DHT22;7711;46.634;14.318;2024-01-30T01:18:08;-5.10;1.00
15217;DHT22;7711;46.634;14.318;2024-01-30T01:20:35;-5.30;1.00
15217;DHT22;7711;46.634;14.318;2024-01-30T01:23:02;-5.40;1.00
15217;DHT22;7711;46.634;14.318;2024-01-30T01:25:29;-5.40;1.00
15217;DHT22;7711;46.634;14.318;2024-01-30T01:27:56;-5.50;1.00
15217;DHT22;7711;46.634;14.318;2024-01-30T01:30:23;-5.60;1.00
15217;DHT22;7711;46.634;14.318;2024-01-30T01:32:51;-5.50;1.00
15217;DHT22;7711;46.634;14.318;2024-01-30T01:35:24;-5.40;1.00
15217;DHT22;7711;46.634;14.318;2024-01-30T01:37:51;-5.40;1.00
15217;DHT22;7711;46.634;14.318;2024-01-30T01:40:21;-5.50;1.00
15217;DHT22;7711;46.634;14.318;2024-01-30T01:42:49;-5.60;1.00
15217;DHT22;7711;46.634;14.318;2024-01-30T01:45:17;-5.60;1.00
15217;DHT22;7711;46.634;14.318;2024-01-30T01:47:44;-5.60;1.00
15217;DHT22;7711;46.634;14.318;2024-01-30T01:50:12;-5.60;1.00
15217;DHT22;7711;46.634;14.318;2024-01-30T01:52:41;-5.40;1.00
15217;DHT22;7711;46.634;14.318;2024-01-30T01:55:08;-5.50;1.00
15217;DHT22;7711;46.634;14.318;2024-01-30T01:57:35;-5.40;1.00
15217;DHT22;7711;46.634;14.318;2024-01-30T02:00:03;-5.50;1.00
15217;DHT22;7711;46.634;14.318;2024-01-30T02:02:30;-5.70;1.00
15217;DHT22;7711;46.634;14.318;2024-01-30T02:05:01;-5.70;1.00
15217;DHT22;7711;46.634;14.318;2024-01-30T02:07:29;-5.80;1.00
15217;DHT22;7711;46.634;14.318;2024-01-30T02:09:57;-5.80;1.00
15217;DHT22;7711;46.634;14.318;2024-01-30T02:12:24;-5.90;1.00
15217;DHT22;7711;46.634;14.318;2024-01-30T02:14:51;-5.90;1.00
15217;DHT22;7711;46.634;14.318;2024-01-30T02:17:19;-6.00;1.00
15217;DHT22;7711;46.634;14.318;2024-01-30T02:19:46;-6.00;1.00
15217;DHT22;7711;46.634;14.318;2024-01-30T02:22:15;-5.80;1.00
15217;DHT22;7711;46.634;14.318;2024-01-30T02:24:42;-5.60;1.00
15217;DHT22;7711;46.634;14.318;2024-01-30T02:27:09;-5.60;1.00
15217;DHT22;7711;46.634;14.318;2024-01-30T02:29:36;-5.70;1.00
15217;DHT22;7711;46.634;14.318;2024-01-30T02:32:03;-5.80;1.00
15217;DHT22;7711;46.634;14.318;2024-01-30T02:34:31;-5.80;1.00
15217;DHT22;7711;46.634;14.318;2024-01-30T02:36:58;-5.90;1.00
15217;DHT22;7711;46.634;14.318;2024-01-30T02:39:26;-5.90;1.00
15217;DHT22;7711;46.634;14.318;2024-01-30T02:41:53;-6.00;1.00
15217;DHT22;7711;46.634;14.318;2024-01-30T02:44:21;-6.00;1.00
15217;DHT22;7711;46.634;14.318;2024-01-30T02:46:47;-6.00;1.00
15217;DHT22;7711;46.634;14.318;2024-01-30T02:49:14;-6.00;1.00
15217;DHT22;7711;46.634;14.318;2024-01-30T02:51:41;-6.00;1.00
15217;DHT22;7711;46.634;14.318;2024-01-30T02:54:08;-6.10;1.00
15217;DHT22;7711;46.634;14.318;2024-01-30T02:56:37;-6.10;1.00
15217;DHT22;7711;46.634;14.318;2024-01-30T02:59:03;-6.00;1.00
15217;DHT22;7711;46.634;14.318;2024-01-30T03:01:30;-6.00;1.00
15217;DHT22;7711;46.634;14.318;2024-01-30T03:03:57;-6.10;1.00
15217;DHT22;7711;46.634;14.318;2024-01-30T03:06:24;-6.10;1.00
15217;DHT22;7711;46.634;14.318;2024-01-30T03:08:51;-6.10;1.00
15217;DHT22;7711;46.634;14.318;2024-01-30T03:11:18;-6.20;1.00
15217;DHT22;7711;46.634;14.318;2024-01-30T03:13:46;-6.30;1.00
15217;DHT22;7711;46.634;14.318;2024-01-30T03:16:13;-6.30;1.00
15217;DHT22;7711;46.634;14.318;2024-01-30T03:18:40;-6.40;1.00
15217;DHT22;7711;46.634;14.318;2024-01-30T03:21:07;-6.30;1.00
15217;DHT22;7711;46.634;14.318;2024-01-30T03:23:34;-6.30;1.00
15217;DHT22;7711;46.634;14.318;2024-01-30T03:26:01;-6.30;1.00
15217;DHT22;7711;46.634;14.318;2024-01-30T03:28:30;-6.30;1.00
15217;DHT22;7711;46.634;14.318;2024-01-30T03:30:58;-6.20;1.00
15217;DHT22;7711;46.634;14.318;2024-01-30T03:33:25;-6.30;1.00
15217;DHT22;7711;46.634;14.318;2024-01-30T03:35:53;-6.30;1.00
15217;DHT22;7711;46.634;14.318;2024-01-30T03:38:20;-6.30;1.00
15217;DHT22;7711;46.634;14.318;2024-01-30T03:40:47;-6.20;1.00
15217;DHT22;7711;46.634;14.318;2024-01-30T03:43:14;-6.20;1.00
15217;DHT22;7711;46.634;14.318;2024-01-30T03:45:41;-6.20;1.00
15217;DHT22;7711;46.634;14.318;2024-01-30T03:48:09;-6.20;1.00
15217;DHT22;7711;46.634;14.318;2024-01-30T03:50:36;-6.30;1.00
15217;DHT22;7711;46.634;14.318;2024-01-30T03:53:03;-6.20;1.00
15217;DHT22;7711;46.634;14.318;2024-01-30T03:55:31;-6.20;1.00
15217;DHT22;7711;46.634;14.318;2024-01-30T03:57:58;-6.40;1.00
15217;DHT22;7711;46.634;14.318;2024-01-30T04:00:25;-6.40;1.00
15217;DHT22;7711;46.634;14.318;2024-01-30T04:02:51;-6.50;1.00
15217;DHT22;7711;46.634;14.318;2024-01-30T04:05:20;-6.50;1.00
15217;DHT22;7711;46.634;14.318;2024-01-30T04:07:47;-6.40;1.00
15217;DHT22;7711;46.634;14.318;2024-01-30T04:10:14;-6.40;1.00
15217;DHT22;7711;46.634;14.318;2024-01-30T04:12:41;-6.40;1.00
15217;DHT22;7711;46.634;14.318;2024-01-30T04:15:08;-6.40;1.00
15217;DHT22;7711;46.634;14.318;2024-01-30T04:17:35;-6.40;1.00
15217;DHT22;7711;46.634;14.318;2024-01-30T04:20:03;-6.50;1.00
15217;DHT22;7711;46.634;14.318;2024-01-30T04:22:32;-6.50;1.00
15217;DHT22;7711;46.634;14.318;2024-01-30T04:24:59;-6.60;1.00
15217;DHT22;7711;46.634;14.318;2024-01-30T04:27:26;-6.50;1.00
15217;DHT22;7711;46.634;14.318;2024-01-30T04:29:53;-6.60;1.00
15217;DHT22;7711;46.634;14.318;2024-01-30T04:32:19;-6.50;1.00
15217;DHT22;7711;46.634;14.318;2024-01-30T04:34:46;-6.30;1.00
15217;DHT22;7711;46.634;14.318;2024-01-30T04:37:13;-6.50;1.00
15217;DHT22;7711;46.634;14.318;2024-01-30T04:39:42;-6.60;1.00
15217;DHT22;7711;46.634;14.318;2024-01-30T04:42:09;-6.60;1.00
15217;DHT22;7711;46.634;14.318;2024-01-30T04:44:36;-6.60;1.00
15217;DHT22;7711;46.634;14.318;2024-01-30T04:47:03;-6.60;1.00
15217;DHT22;7711;46.634;14.318;2024-01-30T04:49:31;-6.70;1.00
15217;DHT22;7711;46.634;14.318;2024-01-30T04:51:58;-6.70;1.00
15217;DHT22;7711;46.634;14.318;2024-01-30T04:54:25;-6.70;1.00
15217;DHT22;7711;46.634;14.318;2024-01-30T04:56:54;-6.50;1.00
15217;DHT22;7711;46.634;14.318;2024-01-30T04:59:20;-6.40;1.00
15217;DHT22;7711;46.634;14.318;2024-01-30T05:01:47;-6.50;1.00
15217;DHT22;7711;46.634;14.318;2024-01-30T05:04:14;-6.50;1.00
15217;DHT22;7711;46.634;14.318;2024-01-30T05:06:41;-6.50;1.00
15217;DHT22;7711;46.634;14.318;2024-01-30T05:09:08;-6.70;1.00
15217;DHT22;7711;46.634;14.318;2024-01-30T05:11:37;-6.80;1.00
15217;DHT22;7711;46.634;14.318;2024-01-30T05:14:06;-6.80;1.00
15217;DHT22;7711;46.634;14.318;2024-01-30T05:16:34;-6.90;1.00
15217;DHT22;7711;46.634;14.318;2024-01-30T05:19:01;-6.90;1.00
15217;DHT22;7711;46.634;14.318;2024-01-30T05:21:28;-6.80;1.00
15217;DHT22;7711;46.634;14.318;2024-01-30T05:23:55;-6.70;1.00
15217;DHT22;7711;46.634;14.318;2024-01-30T05:26:22;-6.50;1.00
15217;DHT22;7711;46.634;14.318;2024-01-30T05:28:49;-6.60;1.00
15217;DHT22;7711;46.634;14.318;2024-01-30T05:31:17;-6.50;1.00
15217;DHT22;7711;46.634;14.318;2024-01-30T05:33:44;-6.50;1.00
15217;DHT22;7711;46.634;14.318;2024-01-30T05:36:12;-6.60;1.00
15217;DHT22;7711;46.634;14.318;2024-01-30T05:38:39;-6.70;1.00
15217;DHT22;7711;46.634;14.318;2024-01-30T05:41:06;-6.80;1.00
15217;DHT22;7711;46.634;14.318;2024-01-30T05:43:33;-6.90;1.00
15217;DHT22;7711;46.634;14.318;2024-01-30T05:46:00;-6.90;1.00
15217;DHT22;7711;46.634;14.318;2024-01-30T05:48:28;-6.90;1.00
15217;DHT22;7711;46.634;14.318;2024-01-30T05:50:56;-7.00;1.00
15217;DHT22;7711;46.634;14.318;2024-01-30T05:53:23;-6.90;1.00
15217;DHT22;7711;46.634;14.318;2024-01-30T05:55:50;-6.90;1.00
15217;DHT22;7711;46.634;14.318;2024-01-30T05:58:17;-6.90;1.00
15217;DHT22;7711;46.634;14.318;2024-01-30T06:00:44;-7.00;1.00
15217;DHT22;7711;46.634;14.318;2024-01-30T06:03:11;-6.90;1.00
15217;DHT22;7711;46.634;14.318;2024-01-30T06:05:39;-7.00;1.00
15217;DHT22;7711;46.634;14.318;2024-01-30T06:08:07;-7.00;1.00
15217;DHT22;7711;46.634;14.318;2024-01-30T06:10:34;-7.00;1.00
15217;DHT22;7711;46.634;14.318;2024-01-30T06:13:01;-6.90;1.00
15217;DHT22;7711;46.634;14.318;2024-01-30T06:15:28;-6.90;1.00
15217;DHT22;7711;46.634;14.318;2024-01-30T06:17:55;-6.80;1.00
15217;DHT22;7711;46.634;14.318;2024-01-30T06:20:22;-6.80;1.00
15217;DHT22;7711;46.634;14.318;2024-01-30T06:22:50;-6.90;1.00
15217;DHT22;7711;46.634;14.318;2024-01-30T06:25:17;-6.90;1.00
15217;DHT22;7711;46.634;14.318;2024-01-30T06:27:45;-6.60;1.00
15217;DHT22;7711;46.634;14.318;2024-01-30T06:30:13;-7.00;1.00
15217;DHT22;7711;46.634;14.318;2024-01-30T06:32:40;-7.00;1.00
15217;DHT22;7711;46.634;14.318;2024-01-30T06:35:07;-7.00;1.00
15217;DHT22;7711;46.634;14.318;2024-01-30T06:37:36;-7.00;1.00
15217;DHT22;7711;46.634;14.318;2024-01-30T06:40:05;-7.00;1.00
15217;DHT22;7711;46.634;14.318;2024-01-30T06:42:32;-6.80;1.00
15217;DHT22;7711;46.634;14.318;2024-01-30T06:44:59;-6.90;1.00
15217;DHT22;7711;46.634;14.318;2024-01-30T06:47:26;-6.90;1.00
15217;DHT22;7711;46.634;14.318;2024-01-30T06:49:54;-7.00;1.00
15217;DHT22;7711;46.634;14.318;2024-01-30T06:52:21;-7.00;1.00
15217;DHT22;7711;46.634;14.318;2024-01-30T06:54:48;-6.70;1.00
15217;DHT22;7711;46.634;14.318;2024-01-30T06:57:16;-6.60;1.00
15217;DHT22;7711;46.634;14.318;2024-01-30T06:59:43;-6.60;1.00
15217;DHT22;7711;46.634;14.318;2024-01-30T07:02:11;-6.50;1.00
15217;DHT22;7711;46.634;14.318;2024-01-30T07:04:38;-6.50;1.00
15217;DHT22;7711;46.634;14.318;2024-01-30T07:07:06;-6.60;1.00
15217;DHT22;7711;46.634;14.318;2024-01-30T07:09:38;-6.50;1.00
15217;DHT22;7711;46.634;14.318;2024-01-30T07:12:05;-6.30;1.00
15217;DHT22;7711;46.634;14.318;2024-01-30T07:14:34;-6.20;1.00
15217;DHT22;7711;46.634;14.318;2024-01-30T07:17:02;-6.10;1.00
15217;DHT22;7711;46.634;14.318;2024-01-30T07:19:29;-6.00;1.00
15217;DHT22;7711;46.634;14.318;2024-01-30T07:21:56;-5.90;1.00
15217;DHT22;7711;46.634;14.318;2024-01-30T07:24:23;-5.90;1.00
15217;DHT22;7711;46.634;14.318;2024-01-30T07:26:50;-5.80;1.00
15217;DHT22;7711;46.634;14.318;2024-01-30T07:29:17;-5.60;1.00
15217;DHT22;7711;46.634;14.318;2024-01-30T07:31:45;-5.60;1.00
15217;DHT22;7711;46.634;14.318;2024-01-30T07:34:12;-5.40;1.00
15217;DHT22;7711;46.634;14.318;2024-01-30T07:36:39;-5.40;1.00
15217;DHT22;7711;46.634;14.318;2024-01-30T07:39:06;-5.40;1.00
15217;DHT22;7711;46.634;14.318;2024-01-30T07:41:33;-5.40;1.00
15217;DHT22;7711;46.634;14.318;2024-01-30T07:44:00;-5.30;1.00
15217;DHT22;7711;46.634;14.318;2024-01-30T07:46:27;-4.90;1.00
15217;DHT22;7711;46.634;14.318;2024-01-30T07:48:55;-5.00;1.00
15217;DHT22;7711;46.634;14.318;2024-01-30T07:51:22;-5.00;1.00
15217;DHT22;7711;46.634;14.318;2024-01-30T07:53:52;-4.90;1.00
15217;DHT22;7711;46.634;14.318;2024-01-30T07:56:19;-4.80;1.00
15217;DHT22;7711;46.634;14.318;2024-01-30T07:58:46;-4.70;1.00
15217;DHT22;7711;46.634;14.318;2024-01-30T08:01:14;-4.60;1.00
15217;DHT22;7711;46.634;14.318;2024-01-30T08:03:41;-4.50;1.00
15217;DHT22;7711;46.634;14.318;2024-01-30T08:06:10;-4.50;1.00
15217;DHT22;7711;46.634;14.318;2024-01-30T08:08:37;-4.00;1.00
15217;DHT22;7711;46.634;14.318;2024-01-30T08:11:04;-4.30;1.00
15217;DHT22;7711;46.634;14.318;2024-01-30T08:13:31;-4.20;1.00
15217;DHT22;7711;46.634;14.318;2024-01-30T08:15:58;-4.10;1.00
15217;DHT22;7711;46.634;14.318;2024-01-30T08:18:25;-4.00;1.00
15217;DHT22;7711;46.634;14.318;2024-01-30T08:20:52;-3.80;1.00
15217;DHT22;7711;46.634;14.318;2024-01-30T08:23:20;-3.80;1.00
15217;DHT22;7711;46.634;14.318;2024-01-30T08:25:47;-3.80;1.00
15217;DHT22;7711;46.634;14.318;2024-01-30T08:28:14;-3.70;1.00
15217;DHT22;7711;46.634;14.318;2024-01-30T08:30:41;-3.60;1.00
15217;DHT22;7711;46.634;14.318;2024-01-30T08:33:08;-3.50;1.00
15217;DHT22;7711;46.634;14.318;2024-01-30T08:35:34;-3.20;1.00
15217;DHT22;7711;46.634;14.318;2024-01-30T08:38:01;-3.30;1.00
15217;DHT22;7711;46.634;14.318;2024-01-30T08:40:30;-3.30;1.00
15217;DHT22;7711;46.634;14.318;2024-01-30T08:42:57;-3.20;1.00
15217;DHT22;7711;46.634;14.318;2024-01-30T08:45:24;-3.10;1.00
15217;DHT22;7711;46.634;14.318;2024-01-30T08:47:51;-3.00;99.90
15217;DHT22;7711;46.634;14.318;2024-01-30T08:50:18;-2.90;99.90
15217;DHT22;7711;46.634;14.318;2024-01-30T08:52:45;-2.70;99.90
15217;DHT22;7711;46.634;14.318;2024-01-30T08:55:12;-2.70;99.90
15217;DHT22;7711;46.634;14.318;2024-01-30T08:57:40;-2.70;99.90
15217;DHT22;7711;46.634;14.318;2024-01-30T09:00:07;-2.10;99.90
15217;DHT22;7711;46.634;14.318;2024-01-30T09:02:35;-2.50;99.90
15217;DHT22;7711;46.634;14.318;2024-01-30T09:05:02;-2.40;99.90
15217;DHT22;7711;46.634;14.318;2024-01-30T09:07:29;-2.30;99.90
15217;DHT22;7711;46.634;14.318;2024-01-30T09:09:56;-2.10;99.90
15217;DHT22;7711;46.634;14.318;2024-01-30T09:12:23;-1.90;99.90
15217;DHT22;7711;46.634;14.318;2024-01-30T09:14:52;-2.00;99.90
15217;DHT22;7711;46.634;14.318;2024-01-30T09:17:19;-1.70;99.90
15217;DHT22;7711;46.634;14.318;2024-01-30T09:19:46;-1.80;99.90
15217;DHT22;7711;46.634;14.318;2024-01-30T09:22:13;-1.60;99.90
15217;DHT22;7711;46.634;14.318;2024-01-30T09:24:40;-1.60;99.90
15217;DHT22;7711;46.634;14.318;2024-01-30T09:27:07;-1.20;99.90
15217;DHT22;7711;46.634;14.318;2024-01-30T09:29:34;-1.20;99.90
15217;DHT22;7711;46.634;14.318;2024-01-30T09:32:04;-1.30;99.90
15217;DHT22;7711;46.634;14.318;2024-01-30T09:34:31;-1.20;99.90
15217;DHT22;7711;46.634;14.318;2024-01-30T09:36:58;-1.10;99.90
15217;DHT22;7711;46.634;14.318;2024-01-30T09:39:26;-1.00;99.90
15217;DHT22;7711;46.634;14.318;2024-01-30T09:42:00;-0.60;99.90
15217;DHT22;7711;46.634;14.318;2024-01-30T09:44:29;-0.70;99.90
15217;DHT22;7711;46.634;14.318;2024-01-30T09:46:56;-0.80;99.90
15217;DHT22;7711;46.634;14.318;2024-01-30T09:49:26;-0.70;99.90
15217;DHT22;7711;46.634;14.318;2024-01-30T09:51:53;-0.70;99.90
15217;DHT22;7711;46.634;14.318;2024-01-30T09:54:21;-0.60;99.90
15217;DHT22;7711;46.634;14.318;2024-01-30T09:56:48;-0.40;99.90
15217;DHT22;7711;46.634;14.318;2024-01-30T09:59:15;-0.10;99.90
15217;DHT22;7711;46.634;14.318;2024-01-30T10:01:43;0.00;99.90
15217;DHT22;7711;46.634;14.318;2024-01-30T10:04:10;0.00;99.90
15217;DHT22;7711;46.634;14.318;2024-01-30T10:06:40;0.00;99.90
15217;DHT22;7711;46.634;14.318;2024-01-30T10:09:07;0.10;99.90
15217;DHT22;7711;46.634;14.318;2024-01-30T10:11:35;0.10;99.90
15217;DHT22;7711;46.634;14.318;2024-01-30T10:14:03;0.30;99.90
15217;DHT22;7711;46.634;14.318;2024-01-30T10:16:30;0.40;99.90
15217;DHT22;7711;46.634;14.318;2024-01-30T10:18:57;0.50;99.90
15217;DHT22;7711;46.634;14.318;2024-01-30T10:21:24;0.50;99.90
15217;DHT22;7711;46.634;14.318;2024-01-30T10:23:52;0.60;99.90
15217;DHT22;7711;46.634;14.318;2024-01-30T10:26:19;0.70;99.90
15217;DHT22;7711;46.634;14.318;2024-01-30T10:28:48;0.80;99.90
15217;DHT22;7711;46.634;14.318;2024-01-30T10:31:17;0.90;99.90
15217;DHT22;7711;46.634;14.318;2024-01-30T10:33:44;0.90;99.90
15217;DHT22;7711;46.634;14.318;2024-01-30T10:36:13;1.00;99.90
15217;DHT22;7711;46.634;14.318;2024-01-30T10:38:42;1.10;99.90
15217;DHT22;7711;46.634;14.318;2024-01-30T10:41:11;1.30;99.90
15217;DHT22;7711;46.634;14.318;2024-01-30T10:43:41;1.40;99.90
15217;DHT22;7711;46.634;14.318;2024-01-30T10:46:11;1.60;99.90
15217;DHT22;7711;46.634;14.318;2024-01-30T10:48:42;1.70;99.90
15217;DHT22;7711;46.634;14.318;2024-01-30T10:51:10;1.60;99.90
15217;DHT22;7711;46.634;14.318;2024-01-30T10:53:39;1.80;99.90
15217;DHT22;7711;46.634;14.318;2024-01-30T10:56:06;1.80;99.90
15217;DHT22;7711;46.634;14.318;2024-01-30T10:58:35;1.90;99.90
15217;DHT22;7711;46.634;14.318;2024-01-30T11:01:02;2.00;99.90
15217;DHT22;7711;46.634;14.318;2024-01-30T11:03:30;2.10;99.90
15217;DHT22;7711;46.634;14.318;2024-01-30T11:05:59;2.10;99.90
15217;DHT22;7711;46.634;14.318;2024-01-30T11:08:27;2.00;99.90
15217;DHT22;7711;46.634;14.318;2024-01-30T11:10:56;2.00;99.90
15217;DHT22;7711;46.634;14.318;2024-01-30T11:13:27;2.00;99.90
15217;DHT22;7711;46.634;14.318;2024-01-30T11:16:00;2.20;99.90
15217;DHT22;7711;46.634;14.318;2024-01-30T11:18:29;2.40;99.90
15217;DHT22;7711;46.634;14.318;2024-01-30T11:20:57;2.60;99.90
15217;DHT22;7711;46.634;14.318;2024-01-30T11:23:26;2.80;99.90
15217;DHT22;7711;46.634;14.318;2024-01-30T11:25:53;3.00;99.90
15217;DHT22;7711;46.634;14.318;2024-01-30T11:28:21;3.10;99.90
15217;DHT22;7711;46.634;14.318;2024-01-30T11:30:48;3.20;99.90
15217;DHT22;7711;46.634;14.318;2024-01-30T11:33:28;3.20;99.90
15217;DHT22;7711;46.634;14.318;2024-01-30T11:35:57;3.30;99.90
15217;DHT22;7711;46.634;14.318;2024-01-30T11:38:26;3.40;99.90
15217;DHT22;7711;46.634;14.318;2024-01-30T11:40:54;3.60;99.90
15217;DHT22;7711;46.634;14.318;2024-01-30T11:43:21;3.80;99.90
15217;DHT22;7711;46.634;14.318;2024-01-30T11:45:49;3.80;99.90
15217;DHT22;7711;46.634;14.318;2024-01-30T11:48:17;3.70;99.90
15217;DHT22;7711;46.634;14.318;2024-01-30T11:50:44;3.80;99.90
15217;DHT22;7711;46.634;14.318;2024-01-30T11:53:11;3.90;99.90
15217;DHT22;7711;46.634;14.318;2024-01-30T11:55:38;4.00;99.90
15217;DHT22;7711;46.634;14.318;2024-01-30T11:58:05;3.70;99.90
15217;DHT22;7711;46.634;14.318;2024-01-30T12:00:32;3.90;99.90
15217;DHT22;7711;46.634;14.318;2024-01-30T12:03:00;4.10;99.90
15217;DHT22;7711;46.634;14.318;2024-01-30T12:05:28;4.20;99.90
15217;DHT22;7711;46.634;14.318;2024-01-30T12:07:55;4.30;99.90
15217;DHT22;7711;46.634;14.318;2024-01-30T12:10:24;4.40;99.90
15217;DHT22;7711;46.634;14.318;2024-01-30T12:12:52;4.50;99.90
15217;DHT22;7711;46.634;14.318;2024-01-30T12:15:21;4.60;99.90
15217;DHT22;7711;46.634;14.318;2024-01-30T12:17:48;4.70;99.90
15217;DHT22;7711;46.634;14.318;2024-01-30T12:20:18;4.80;99.90
15217;DHT22;7711;46.634;14.318;2024-01-30T12:22:47;4.90;99.90
15217;DHT22;7711;46.634;14.318;2024-01-30T12:25:15;5.00;99.90
15217;DHT22;7711;46.634;14.318;2024-01-30T12:27:44;4.90;99.90
15217;DHT22;7711;46.634;14.318;2024-01-30T12:30:12;5.00;99.90
15217;DHT22;7711;46.634;14.318;2024-01-30T12:32:40;5.10;99.90
15217;DHT22;7711;46.634;14.318;2024-01-30T12:35:10;5.20;99.90
15217;DHT22;7711;46.634;14.318;2024-01-30T12:37:37;5.30;99.90
15217;DHT22;7711;46.634;14.318;2024-01-30T12:40:07;5.30;99.90
15217;DHT22;7711;46.634;14.318;2024-01-30T12:42:35;5.40;99.90
15217;DHT22;7711;46.634;14.318;2024-01-30T12:45:03;5.50;99.90
15217;DHT22;7711;46.634;14.318;2024-01-30T12:47:30;5.50;99.90
15217;DHT22;7711;46.634;14.318;2024-01-30T12:49:57;5.60;99.90
15217;DHT22;7711;46.634;14.318;2024-01-30T12:52:24;5.60;99.90
15217;DHT22;7711;46.634;14.318;2024-01-30T12:54:51;5.60;99.90
15217;DHT22;7711;46.634;14.318;2024-01-30T12:57:19;5.60;99.90
15217;DHT22;7711;46.634;14.318;2024-01-30T12:59:46;5.80;99.90
15217;DHT22;7711;46.634;14.318;2024-01-30T13:02:13;5.70;99.90
15217;DHT22;7711;46.634;14.318;2024-01-30T13:04:42;5.90;99.90
15217;DHT22;7711;46.634;14.318;2024-01-30T13:07:09;5.90;99.90
15217;DHT22;7711;46.634;14.318;2024-01-30T13:09:35;6.00;99.90
15217;DHT22;7711;46.634;14.318;2024-01-30T13:12:04;6.00;99.90
15217;DHT22;7711;46.634;14.318;2024-01-30T13:14:32;6.20;99.90
15217;DHT22;7711;46.634;14.318;2024-01-30T13:16:59;6.30;99.90
15217;DHT22;7711;46.634;14.318;2024-01-30T13:19:26;6.60;99.90
15217;DHT22;7711;46.634;14.318;2024-01-30T13:21:53;7.00;99.90
15217;DHT22;7711;46.634;14.318;2024-01-30T13:24:20;8.10;99.90
15217;DHT22;7711;46.634;14.318;2024-01-30T13:26:48;9.00;99.90
15217;DHT22;7711;46.634;14.318;2024-01-30T13:29:15;9.90;99.90
15217;DHT22;7711;46.634;14.318;2024-01-30T13:31:43;10.80;99.90
15217;DHT22;7711;46.634;14.318;2024-01-30T13:34:12;11.30;99.90
15217;DHT22;7711;46.634;14.318;2024-01-30T13:36:40;11.00;99.90
15217;DHT22;7711;46.634;14.318;2024-01-30T13:39:07;11.50;99.90
15217;DHT22;7711;46.634;14.318;2024-01-30T13:41:35;11.90;99.90
15217;DHT22;7711;46.634;14.318;2024-01-30T13:44:02;12.50;99.90
15217;DHT22;7711;46.634;14.318;2024-01-30T13:46:30;12.60;99.90
15217;DHT22;7711;46.634;14.318;2024-01-30T13:48:58;13.10;99.90
15217;DHT22;7711;46.634;14.318;2024-01-30T13:51:25;12.70;99.90
15217;DHT22;7711;46.634;14.318;2024-01-30T13:53:52;12.20;99.90
15217;DHT22;7711;46.634;14.318;2024-01-30T13:56:19;12.10;99.90
15217;DHT22;7711;46.634;14.318;2024-01-30T13:58:47;12.40;99.90
15217;DHT22;7711;46.634;14.318;2024-01-30T14:01:14;12.00;99.90
15217;DHT22;7711;46.634;14.318;2024-01-30T14:03:41;12.60;99.90
15217;DHT22;7711;46.634;14.318;2024-01-30T14:06:09;13.30;99.90
15217;DHT22;7711;46.634;14.318;2024-01-30T14:08:36;13.10;99.90
15217;DHT22;7711;46.634;14.318;2024-01-30T14:11:04;13.10;99.90
15217;DHT22;7711;46.634;14.318;2024-01-30T14:13:31;12.90;99.90
15217;DHT22;7711;46.634;14.318;2024-01-30T14:15:58;12.90;99.90
15217;DHT22;7711;46.634;14.318;2024-01-30T14:18:25;12.90;99.90
15217;DHT22;7711;46.634;14.318;2024-01-30T14:20:52;12.30;99.90
15217;DHT22;7711;46.634;14.318;2024-01-30T14:23:21;12.20;99.90
15217;DHT22;7711;46.634;14.318;2024-01-30T14:25:48;12.00;99.90
15217;DHT22;7711;46.634;14.318;2024-01-30T14:28:17;12.20;99.90
15217;DHT22;7711;46.634;14.318;2024-01-30T14:30:44;12.20;99.90
15217;DHT22;7711;46.634;14.318;2024-01-30T14:33:10;11.10;99.90
15217;DHT22;7711;46.634;14.318;2024-01-30T14:35:38;11.70;99.90
15217;DHT22;7711;46.634;14.318;2024-01-30T14:38:05;12.20;99.90
15217;DHT22;7711;46.634;14.318;2024-01-30T14:40:34;12.20;99.90
15217;DHT22;7711;46.634;14.318;2024-01-30T14:43:01;11.60;99.90
15217;DHT22;7711;46.634;14.318;2024-01-30T14:45:29;12.20;99.90
15217;DHT22;7711;46.634;14.318;2024-01-30T14:47:57;12.30;99.90
15217;DHT22;7711;46.634;14.318;2024-01-30T14:50:25;12.00;99.90
15217;DHT22;7711;46.634;14.318;2024-01-30T14:52:52;12.20;99.90
15217;DHT22;7711;46.634;14.318;2024-01-30T14:55:19;11.90;99.90
15217;DHT22;7711;46.634;14.318;2024-01-30T14:57:47;11.90;99.90
15217;DHT22;7711;46.634;14.318;2024-01-30T15:00:15;11.90;99.90
15217;DHT22;7711;46.634;14.318;2024-01-30T15:02:42;12.10;99.90
15217;DHT22;7711;46.634;14.318;2024-01-30T15:05:09;12.00;99.90
15217;DHT22;7711;46.634;14.318;2024-01-30T15:07:37;11.60;99.90
15217;DHT22;7711;46.634;14.318;2024-01-30T15:10:04;11.30;99.90
15217;DHT22;7711;46.634;14.318;2024-01-30T15:12:32;10.20;99.90
15217;DHT22;7711;46.634;14.318;2024-01-30T15:15:00;8.90;99.90
15217;DHT22;7711;46.634;14.318;2024-01-30T15:17:27;7.60;99.90
15217;DHT22;7711;46.634;14.318;2024-01-30T15:19:54;7.00;99.90
15217;DHT22;7711;46.634;14.318;2024-01-30T15:22:21;6.40;99.90
15217;DHT22;7711;46.634;14.318;2024-01-30T15:24:49;5.80;99.90
15217;DHT22;7711;46.634;14.318;2024-01-30T15:27:16;5.50;99.90
15217;DHT22;7711;46.634;14.318;2024-01-30T15:29:45;5.20;99.90
15217;DHT22;7711;46.634;14.318;2024-01-30T15:32:13;4.90;99.90
15217;DHT22;7711;46.634;14.318;2024-01-30T15:34:40;4.50;99.90
15217;DHT22;7711;46.634;14.318;2024-01-30T15:37:07;4.30;99.90
15217;DHT22;7711;46.634;14.318;2024-01-30T15:39:34;4.10;99.90
15217;DHT22;7711;46.634;14.318;2024-01-30T15:42:01;3.90;99.90
15217;DHT22;7711;46.634;14.318;2024-01-30T15:44:28;3.80;99.90